Time;durP1;ratioP1;P1;durP2;ratioP2;P2;SDS_P1;SDS_P2;PMS_P1;PMS_P2;Temp;Humidity;BMP_temperature;BMP_pressure;BME280_temperature;BME280_humidity;BME280_pressure;Samples;Min_cycle;Max_cycle;Signal;HPM_P1;HPM_P2
2023/10/01 00:01:17;;;;;;;3.03;1.65;;;14.80;99.90;;;;;;5018377;28;20115;-67
2023/10/01 00:03:43;;;;;;;1.60;1.50;;;14.80;99.90;;;;;;5052849;28;20468;-67
2023/10/01 00:06:08;;;;;;;2.47;1.95;;;14.70;99.90;;;;;;5052892;28;20400;-68
2023/10/01 00:08:34;;;;;;;1.63;1.40;;;14.80;99.70;;;;;;5035044;28;20037;-67
2023/10/01 00:11:01;;;;;;;3.40;2.08;;;14.70;99.20;;;;;;5052597;28;20033;-67
2023/10/01 00:13:26;;;;;;;2.38;1.63;;;14.70;99.60;;;;;;5052925;28;20041;-68
2023/10/01 00:15:54;;;;;;;2.35;2.05;;;14.70;99.50;;;;;;5052771;28;20396;-67
2023/10/01 00:18:21;;;;;;;2.75;1.90;;;14.60;99.90;;;;;;5052678;28;20088;-67
2023/10/01 00:20:46;;;;;;;2.20;1.77;;;14.50;99.90;;;;;;5052742;28;20040;-67
2023/10/01 00:23:12;;;;;;;4.13;2.13;;;14.50;99.90;;;;;;5052465;28;20459;-65
2023/10/01 00:25:38;;;;;;;2.10;1.90;;;14.40;99.90;;;;;;5034925;28;20460;-65
2023/10/01 00:28:06;;;;;;;2.63;1.83;;;14.40;99.90;;;;;;5052629;28;20048;-65
2023/10/01 00:30:32;;;;;;;5.10;2.10;;;14.40;99.90;;;;;;5052622;28;20072;-65
2023/10/01 00:32:59;;;;;;;4.47;2.17;;;14.40;99.90;;;;;;5052232;28;20511;-65
2023/10/01 00:35:27;;;;;;;1.95;1.75;;;14.40;99.90;;;;;;5052348;28;20044;-66
2023/10/01 00:37:53;;;;;;;1.90;1.70;;;14.30;99.90;;;;;;5052481;28;20033;-65
2023/10/01 00:40:19;;;;;;;2.72;1.77;;;14.40;99.90;;;;;;5034407;28;20072;-65
2023/10/01 00:42:46;;;;;;;2.75;1.77;;;14.30;99.90;;;;;;5052424;28;20041;-65
2023/10/01 00:45:13;;;;;;;1.85;1.45;;;14.30;99.90;;;;;;5052480;28;20461;-65
2023/10/01 00:47:43;;;;;;;2.13;1.90;;;14.30;99.90;;;;;;5052450;28;20089;-65
2023/10/01 00:50:21;;;;;;;2.37;2.00;;;14.40;99.90;;;;;;5052460;28;20480;-66
2023/10/01 00:52:51;;;;;;;2.78;2.10;;;14.40;99.90;;;;;;5052451;28;20401;-65
2023/10/01 00:55:18;;;;;;;2.92;1.98;;;14.40;99.90;;;;;;5034287;28;20053;-65
2023/10/01 00:57:44;;;;;;;2.30;2.00;;;14.40;99.90;;;;;;5052418;28;20417;-65
2023/10/01 01:00:15;;;;;;;3.42;1.95;;;14.40;99.90;;;;;;5034599;28;20044;-65
2023/10/01 01:02:56;;;;;;;2.63;2.25;;;14.40;99.90;;;;;;5052722;28;20033;-65
2023/10/01 01:05:23;;;;;;;2.58;2.08;;;14.40;99.90;;;;;;5055900;28;20437;-65
2023/10/01 01:07:50;;;;;;;3.03;2.13;;;14.40;99.90;;;;;;5055834;28;20412;-65
2023/10/01 01:10:18;;;;;;;2.83;2.08;;;14.40;99.90;;;;;;5055512;28;20040;-65
2023/10/01 01:12:45;;;;;;;3.22;2.03;;;14.30;99.90;;;;;;5055904;28;20041;-68
2023/10/01 01:15:13;;;;;;;4.22;2.45;;;14.30;99.90;;;;;;5037839;28;20048;-67
2023/10/01 01:17:41;;;;;;;2.22;1.88;;;14.30;99.90;;;;;;5037578;28;20025;-67
2023/10/01 01:20:10;;;;;;;2.60;2.00;;;14.30;99.90;;;;;;5055411;28;20051;-67
2023/10/01 01:22:37;;;;;;;2.78;2.10;;;14.30;99.90;;;;;;5055177;28;20076;-68
2023/10/01 01:25:10;;;;;;;2.20;2.00;;;14.20;99.90;;;;;;5055232;28;20041;-67
2023/10/01 01:27:40;;;;;;;3.88;2.22;;;14.20;99.90;;;;;;5055228;28;20041;-67
2023/10/01 01:30:08;;;;;;;2.75;2.20;;;14.20;99.90;;;;;;5055163;28;20048;-67
2023/10/01 01:32:36;;;;;;;3.20;2.60;;;14.10;99.90;;;;;;5055357;28;20148;-67
2023/10/01 01:35:05;;;;;;;2.38;2.10;;;14.10;99.90;;;;;;5054918;28;20467;-68
2023/10/01 01:37:36;;;;;;;2.92;2.17;;;14.40;99.90;;;;;;5054961;28;20045;-68
2023/10/01 01:40:13;;;;;;;2.70;2.35;;;14.10;99.90;;;;;;5037375;28;20060;-67
2023/10/01 01:42:39;;;;;;;3.03;2.15;;;14.00;99.90;;;;;;5055138;28;20041;-67
2023/10/01 01:45:25;;;;;;;2.53;2.20;;;14.00;99.90;;;;;;5055262;28;20036;-65
2023/10/01 01:47:51;;;;;;;2.63;2.08;;;14.00;99.90;;;;;;5036891;28;20045;-65
2023/10/01 01:50:21;;;;;;;3.15;2.00;;;14.00;99.90;;;;;;5055015;28;20557;-65
2023/10/01 01:52:51;;;;;;;3.05;2.50;;;14.00;99.90;;;;;;5037226;28;20049;-65
2023/10/01 01:55:27;;;;;;;2.28;2.00;;;14.00;99.90;;;;;;5036945;28;20098;-65
2023/10/01 01:58:08;;;;;;;2.58;2.03;;;14.00;99.90;;;;;;5054930;28;20048;-65
2023/10/01 02:00:35;;;;;;;;;;;14.10;99.90;;;;;;5037447;28;20485;-65
2023/10/01 02:03:10;;;;;;;3.58;2.45;;;14.10;99.90;;;;;;5054505;28;19947;-65
2023/10/01 02:05:41;;;;;;;2.45;2.25;;;14.10;99.90;;;;;;5054759;28;20043;-65
2023/10/01 02:08:23;;;;;;;2.58;2.00;;;14.20;99.90;;;;;;5054772;28;20033;-65
2023/10/01 02:10:50;;;;;;;2.22;2.03;;;14.10;99.90;;;;;;5054686;28;20475;-65
2023/10/01 02:13:18;;;;;;;2.60;1.83;;;14.20;99.90;;;;;;5036557;28;20049;-65
2023/10/01 02:15:47;;;;;;;2.42;2.10;;;14.30;99.90;;;;;;5053617;28;20133;-65
2023/10/01 02:18:17;;;;;;;2.47;2.10;;;14.20;99.90;;;;;;5036345;28;20037;-65
2023/10/01 02:20:52;;;;;;;3.08;2.78;;;14.30;99.90;;;;;;5054531;28;20099;-65
2023/10/01 02:23:32;;;;;;;2.40;1.88;;;14.30;99.90;;;;;;5036251;28;20041;-65
2023/10/01 02:26:00;;;;;;;2.53;2.00;;;14.30;99.90;;;;;;5036305;28;20037;-68
2023/10/01 02:28:32;;;;;;;2.50;2.20;;;14.70;99.90;;;;;;5036190;28;20044;-68
2023/10/01 02:31:00;;;;;;;2.80;2.47;;;14.30;99.90;;;;;;5054270;28;20056;-67
2023/10/01 02:33:55;;;;;;;2.75;2.40;;;14.40;99.90;;;;;;5053878;28;20187;-68
2023/10/01 02:36:12;;;;;;;2.13;1.73;;;14.40;99.90;;;;;;5053726;28;20045;-67
2023/10/01 02:38:45;;;;;;;2.72;2.47;;;14.40;99.90;;;;;;5036387;28;20507;-68
2023/10/01 02:41:15;;;;;;;2.28;1.88;;;14.40;99.90;;;;;;5054179;28;20075;-68
2023/10/01 02:43:41;;;;;;;3.65;2.30;;;14.40;99.90;;;;;;5054007;28;20418;-67
2023/10/01 02:46:12;;;;;;;2.38;2.17;;;14.70;99.90;;;;;;5054045;28;20094;-67
2023/10/01 02:48:42;;;;;;;2.10;1.90;;;14.40;99.90;;;;;;5053718;28;20112;-68
2023/10/01 02:51:14;;;;;;;3.33;2.42;;;14.40;99.90;;;;;;5019373;28;20420;-67
2023/10/01 02:57:12;;;;;;;2.55;2.03;;;14.60;99.90;;;;;;5032212;28;20048;-65
2023/10/01 03:02:30;;;;;;;2.92;2.22;;;14.40;99.90;;;;;;5035466;28;20053;-65
2023/10/01 03:05:03;;;;;;;3.42;2.50;;;14.40;99.90;;;;;;5053722;28;20481;-65
2023/10/01 03:07:38;;;;;;;2.97;2.67;;;14.40;99.90;;;;;;5035751;28;20476;-65
2023/10/01 03:10:25;;;;;;;2.20;2.00;;;14.40;99.90;;;;;;5053650;28;20037;-65
2023/10/01 03:12:58;;;;;;;2.50;2.28;;;14.40;99.90;;;;;;5053581;28;20099;-65
2023/10/01 03:15:29;;;;;;;3.17;2.35;;;14.40;99.90;;;;;;5053487;28;20090;-65
2023/10/01 03:18:06;;;;;;;2.50;2.25;;;14.40;99.90;;;;;;5035372;28;20049;-65
2023/10/01 03:23:25;;;;;;;2.72;2.45;;;14.40;99.90;;;;;;5035165;28;20053;-65
2023/10/01 03:26:00;;;;;;;2.38;2.00;;;14.40;99.90;;;;;;5052831;28;20047;-65
2023/10/01 03:29:13;;;;;;;2.10;1.90;;;14.40;99.90;;;;;;5035155;28;20048;-65
2023/10/01 03:31:20;;;;;;;4.35;2.65;;;14.40;99.90;;;;;;5052784;28;20056;-65
2023/10/01 03:33:45;;;;;;;3.35;2.80;;;14.40;99.90;;;;;;5052999;28;20057;-65
2023/10/01 03:36:16;;;;;;;3.53;2.67;;;14.40;99.90;;;;;;5052994;28;20519;-65
2023/10/01 03:38:43;;;;;;;2.50;2.10;;;14.40;99.90;;;;;;5053122;28;20116;-65
2023/10/01 03:41:20;;;;;;;3.28;2.97;;;14.40;99.90;;;;;;5053163;28;20067;-66
2023/10/01 03:43:47;;;;;;;3.00;2.72;;;14.50;99.90;;;;;;5053061;28;20088;-65
2023/10/01 03:46:14;;;;;;;2.83;2.58;;;14.40;99.90;;;;;;5053062;28;20037;-65
2023/10/01 03:57:18;;;;;;;2.25;2.05;;;14.50;99.90;;;;;;5052924;28;20048;-65
2023/10/01 03:59:53;;;;;;;2.58;2.38;;;14.50;99.90;;;;;;5034814;28;20052;-65
2023/10/01 04:02:46;;;;;;;2.95;2.20;;;14.50;99.90;;;;;;5052487;28;20041;-65
2023/10/01 04:08:07;;;;;;;2.50;2.30;;;14.50;99.90;;;;;;5052891;28;20113;-67
2023/10/01 04:10:34;;;;;;;3.53;3.03;;;14.50;99.90;;;;;;5052801;28;20041;-67
2023/10/01 04:13:23;;;;;;;3.10;2.30;;;14.50;99.90;;;;;;5052810;28;20041;-67
2023/10/01 04:15:55;;;;;;;2.90;2.70;;;14.50;99.90;;;;;;5052072;28;20053;-67
2023/10/01 04:18:23;;;;;;;3.33;2.67;;;14.50;99.90;;;;;;5052794;28;20037;-67
2023/10/01 04:23:29;;;;;;;4.45;2.65;;;14.50;99.90;;;;;;5052626;28;20049;-67
2023/10/01 04:26:05;;;;;;;2.25;2.05;;;14.40;99.90;;;;;;5052732;28;20041;-67
2023/10/01 04:28:34;;;;;;;2.80;2.60;;;14.50;99.90;;;;;;5052642;28;20098;-67
2023/10/01 04:31:03;;;;;;;2.33;2.00;;;14.30;99.90;;;;;;5052540;28;20125;-68
2023/10/01 04:33:29;;;;;;;2.50;2.30;;;14.50;99.90;;;;;;5034404;28;20106;-67
2023/10/01 04:35:55;;;;;;;2.47;2.28;;;14.50;99.90;;;;;;5052600;28;20049;-67
2023/10/01 04:38:29;;;;;;;2.70;2.42;;;14.50;99.90;;;;;;5019552;28;20408;-68
2023/10/01 04:40:57;;;;;;;2.72;2.50;;;14.50;99.90;;;;;;5056426;28;20045;-67
2023/10/01 04:43:26;;;;;;;3.17;2.50;;;14.50;99.90;;;;;;5038192;28;20552;-67
2023/10/01 04:45:52;;;;;;;2.38;2.17;;;14.50;99.90;;;;;;5038267;28;20463;-67
2023/10/01 04:48:25;;;;;;;2.95;2.40;;;14.60;99.90;;;;;;5055990;28;20079;-67
2023/10/01 04:50:54;;;;;;;2.40;2.20;;;14.50;99.90;;;;;;5055955;28;20040;-67
2023/10/01 04:53:21;;;;;;;2.80;2.42;;;14.50;99.90;;;;;;5055778;28;20052;-67
2023/10/01 04:56:06;;;;;;;2.85;2.58;;;14.50;99.90;;;;;;5056210;28;20498;-67
2023/10/01 04:58:36;;;;;;;2.92;2.30;;;14.50;99.90;;;;;;5037953;28;20037;-67
2023/10/01 05:01:11;;;;;;;2.88;2.35;;;14.50;99.90;;;;;;5056105;28;20071;-67
2023/10/01 05:03:39;;;;;;;2.10;1.90;;;14.60;99.90;;;;;;5037880;28;20474;-67
2023/10/01 05:06:13;;;;;;;2.47;2.20;;;14.50;99.90;;;;;;5055654;28;20068;-67
2023/10/01 05:08:40;;;;;;;2.50;2.30;;;14.50;99.10;;;;;;5055842;28;20048;-67
2023/10/01 05:11:13;;;;;;;3.75;2.40;;;14.50;97.80;;;;;;5055632;28;20404;-67
2023/10/01 05:13:44;;;;;;;2.40;2.20;;;14.50;97.30;;;;;;5055801;28;20037;-67
2023/10/01 05:16:13;;;;;;;2.88;2.15;;;14.60;96.80;;;;;;5055854;28;20052;-65
2023/10/01 05:18:39;;;;;;;3.40;2.38;;;14.60;96.20;;;;;;5055666;28;20494;-65
2023/10/01 05:21:12;;;;;;;2.38;2.17;;;14.60;95.90;;;;;;5055614;28;20041;-65
2023/10/01 05:23:39;;;;;;;2.72;1.90;;;14.50;95.70;;;;;;5055574;28;20060;-65
2023/10/01 05:26:08;;;;;;;2.70;1.92;;;15.00;95.90;;;;;;5055704;28;20043;-67
2023/10/01 05:28:36;;;;;;;2.53;2.03;;;14.50;95.60;;;;;;5055517;28;20137;-67
2023/10/01 05:31:08;;;;;;;2.20;2.00;;;14.60;95.50;;;;;;5055485;28;20041;-68
2023/10/01 05:33:38;;;;;;;3.00;2.00;;;14.60;94.70;;;;;;5055209;28;20063;-67
2023/10/01 05:36:04;;;;;;;2.30;1.70;;;14.60;94.10;;;;;;5021130;28;20392;-65
2023/10/01 05:38:40;;;;;;;2.25;1.98;;;14.60;93.30;;;;;;5055321;28;20040;-65
2023/10/01 05:41:09;;;;;;;2.40;2.08;;;14.60;92.30;;;;;;5055322;28;20041;-65
2023/10/01 05:43:37;;;;;;;2.10;1.90;;;14.60;91.90;;;;;;5036962;28;20049;-65
2023/10/01 05:46:08;;;;;;;1.83;1.70;;;14.60;94.30;;;;;;5055228;28;20037;-65
2023/10/01 05:48:39;;;;;;;2.78;2.25;;;14.50;95.40;;;;;;5055072;28;20043;-65
2023/10/01 05:51:14;;;;;;;2.17;1.92;;;14.50;99.90;;;;;;5055219;28;20029;-65
2023/10/01 05:53:41;;;;;;;3.28;2.08;;;14.40;99.90;;;;;;5037157;28;20488;-65
2023/10/01 05:56:11;;;;;;;2.25;2.05;;;14.40;99.90;;;;;;5055128;28;20068;-65
2023/10/01 05:58:38;;;;;;;2.53;2.17;;;14.50;99.90;;;;;;5054816;28;20458;-65
2023/10/01 06:01:13;;;;;;;2.60;1.90;;;14.30;99.90;;;;;;5054996;28;20041;-66
2023/10/01 06:03:43;;;;;;;2.28;2.03;;;14.30;99.90;;;;;;5020126;28;20150;-65
2023/10/01 06:06:13;;;;;;;2.30;2.10;;;14.20;99.90;;;;;;5036680;28;20397;-68
2023/10/01 06:08:45;;;;;;;3.67;2.35;;;14.20;99.90;;;;;;5020148;28;20068;-65
2023/10/01 06:11:16;;;;;;;2.35;2.10;;;14.20;99.90;;;;;;5036569;28;20036;-65
2023/10/01 06:13:51;;;;;;;2.25;1.98;;;14.20;99.90;;;;;;5036746;28;20041;-65
2023/10/01 06:16:22;;;;;;;3.97;3.03;;;14.20;99.90;;;;;;5020283;28;20041;-66
2023/10/01 06:18:52;;;;;;;;;;;14.20;99.90;;;;;;5020445;28;20408;-65
2023/10/01 06:21:18;;;;;;;2.90;2.00;;;14.20;99.90;;;;;;5036498;28;19924;-65
2023/10/01 06:23:50;;;;;;;4.03;2.50;;;14.20;99.90;;;;;;5036352;28;20532;-66
2023/10/01 06:26:33;;;;;;;3.03;2.13;;;14.20;99.90;;;;;;5036329;28;20048;-65
2023/10/01 06:29:02;;;;;;;2.40;2.05;;;14.20;99.90;;;;;;5036220;28;20041;-65
2023/10/01 06:34:32;;;;;;;2.55;1.98;;;14.30;99.90;;;;;;5014830;28;20140;-65
2023/10/01 06:36:58;;;;;;;;;;;14.30;99.90;;;;;;5054616;28;20049;-65
2023/10/01 06:39:30;;;;;;;2.63;2.15;;;14.30;99.90;;;;;;5053810;28;19924;-65
2023/10/01 06:44:41;;;;;;;2.63;2.30;;;14.70;99.90;;;;;;5054063;28;20037;-66
2023/10/01 06:47:14;;;;;;;2.95;2.65;;;14.40;99.90;;;;;;5054208;28;20055;-65
2023/10/01 06:49:56;;;;;;;2.08;1.77;;;14.40;99.90;;;;;;5054146;28;20041;-65
2023/10/01 06:52:27;;;;;;;3.20;2.40;;;14.80;99.90;;;;;;5053984;28;20523;-64
2023/10/01 06:54:55;;;;;;;2.95;2.00;;;14.50;99.90;;;;;;5035765;28;20045;-64
2023/10/01 06:57:23;;;;;;;3.78;2.30;;;14.50;99.90;;;;;;5053904;28;20041;-64
2023/10/01 06:59:49;;;;;;;2.50;1.85;;;14.80;99.90;;;;;;5053554;28;20037;-64
2023/10/01 07:02:15;;;;;;;2.58;2.33;;;14.50;99.90;;;;;;5035302;28;20446;-64
2023/10/01 07:04:41;;;;;;;2.22;1.85;;;14.60;99.90;;;;;;5035566;28;20043;-65
2023/10/01 07:07:20;;;;;;;2.22;2.03;;;14.60;99.90;;;;;;5035629;28;20037;-63
2023/10/01 07:09:46;;;;;;;1.83;1.73;;;14.60;99.90;;;;;;5053649;28;20069;-65
2023/10/01 07:12:12;;;;;;;3.00;1.90;;;14.60;99.90;;;;;;5053575;28;20504;-66
2023/10/01 07:14:38;;;;;;;3.60;1.90;;;14.60;99.90;;;;;;5035445;28;20244;-66
2023/10/01 07:17:08;;;;;;;2.92;2.13;;;14.60;99.90;;;;;;5053547;28;20037;-64
2023/10/01 07:19:34;;;;;;;2.83;1.90;;;14.70;99.90;;;;;;5053487;28;20641;-64
2023/10/01 07:22:06;;;;;;;2.38;1.95;;;14.70;99.90;;;;;;5053293;28;20497;-64
2023/10/01 07:24:36;;;;;;;3.03;2.25;;;14.60;99.90;;;;;;5035252;28;20044;-65
2023/10/01 07:27:03;;;;;;;2.67;2.10;;;14.70;99.90;;;;;;5053166;28;20041;-64
2023/10/01 07:29:35;;;;;;;2.20;2.00;;;15.30;99.90;;;;;;5053057;28;20040;-64
2023/10/01 07:32:11;;;;;;;2.80;2.25;;;14.80;99.90;;;;;;5035558;28;20473;-66
2023/10/01 07:34:48;;;;;;;2.53;1.95;;;14.80;99.90;;;;;;5052896;28;20460;-64
2023/10/01 07:37:23;;;;;;;2.25;1.70;;;14.80;99.90;;;;;;5019059;28;20041;-64
2023/10/01 07:40:16;;;;;;;2.92;2.28;;;15.30;99.90;;;;;;5053130;28;20064;-64
2023/10/01 07:42:49;;;;;;;2.20;2.00;;;14.80;99.90;;;;;;5053024;28;20040;-64
2023/10/01 07:45:18;;;;;;;2.30;2.10;;;14.80;99.90;;;;;;5034870;28;20045;-64
2023/10/01 07:47:44;;;;;;;2.10;1.77;;;14.80;99.90;;;;;;5052796;28;20044;-64
2023/10/01 07:50:13;;;;;;;3.00;1.95;;;14.80;99.90;;;;;;5053017;28;20033;-64
2023/10/01 07:52:41;;;;;;;2.40;2.20;;;14.80;99.90;;;;;;5034781;28;20055;-65
2023/10/01 07:57:53;;;;;;;3.70;2.45;;;14.90;99.90;;;;;;5052932;28;20073;-67
2023/10/01 08:00:29;;;;;;;2.47;2.10;;;14.90;99.90;;;;;;5052888;28;20087;-66
2023/10/01 08:05:40;;;;;;;2.63;1.88;;;14.90;99.90;;;;;;5052854;28;20037;-66
2023/10/01 08:08:09;;;;;;;2.58;2.08;;;15.10;99.90;;;;;;5052920;28;20069;-66
2023/10/01 08:10:37;;;;;;;2.42;2.22;;;15.10;99.90;;;;;;5052835;28;20149;-66
2023/10/01 08:13:06;;;;;;;2.58;2.05;;;15.20;99.90;;;;;;5053886;28;20048;-66
2023/10/01 08:15:39;;;;;;;2.58;1.98;;;15.20;99.90;;;;;;5056883;28;20403;-66
2023/10/01 08:20:58;;;;;;;2.55;1.95;;;15.10;99.90;;;;;;5056426;28;20049;-68
2023/10/01 08:23:28;;;;;;;2.30;2.08;;;15.10;99.90;;;;;;5056465;28;20045;-68
2023/10/01 08:25:56;;;;;;;3.83;1.93;;;15.10;99.90;;;;;;5056541;28;20558;-68
2023/10/01 08:31:01;;;;;;;3.00;2.10;;;15.20;99.90;;;;;;5056368;28;20535;-68
2023/10/01 08:33:42;;;;;;;3.75;2.55;;;15.20;99.90;;;;;;5056060;28;20114;-67
2023/10/01 08:36:14;;;;;;;2.58;2.15;;;15.30;99.90;;;;;;5038399;28;20045;-67
2023/10/01 08:39:20;;;;;;;3.67;2.50;;;15.40;99.90;;;;;;5056143;28;20128;-67
2023/10/01 08:41:50;;;;;;;2.53;1.83;;;15.50;99.90;;;;;;5056054;28;20464;-67
2023/10/01 08:44:20;;;;;;;2.83;2.13;;;15.60;99.90;;;;;;5056344;28;20477;-67
2023/10/01 08:46:47;;;;;;;2.30;1.90;;;15.70;99.90;;;;;;5056028;28;20037;-67
2023/10/01 08:49:30;;;;;;;1.67;1.58;;;15.80;99.90;;;;;;5055964;28;20090;-67
2023/10/01 08:52:19;;;;;;;2.30;1.92;;;15.90;99.90;;;;;;5038383;28;20045;-67
2023/10/01 08:54:45;;;;;;;2.22;2.00;;;16.00;99.90;;;;;;5037897;28;20126;-68
2023/10/01 08:57:18;;;;;;;2.45;2.13;;;16.00;99.90;;;;;;5056105;28;20107;-68
2023/10/01 08:59:46;;;;;;;2.13;1.75;;;16.10;99.90;;;;;;5037952;28;20116;-68
2023/10/01 09:02:19;;;;;;;2.67;2.13;;;16.10;99.90;;;;;;5055705;28;20033;-68
2023/10/01 09:04:45;;;;;;;2.22;1.63;;;16.10;99.90;;;;;;5055657;28;20041;-67
2023/10/01 09:07:18;;;;;;;2.45;1.95;;;16.20;99.90;;;;;;5056025;28;20033;-66
2023/10/01 09:10:05;;;;;;;2.38;1.90;;;16.20;99.90;;;;;;5055936;28;20112;-66
2023/10/01 09:12:35;;;;;;;3.25;2.38;;;17.10;99.90;;;;;;5055788;28;20045;-65
2023/10/01 09:15:05;;;;;;;2.88;2.13;;;16.50;99.90;;;;;;5055871;28;20052;-65
2023/10/01 09:17:56;;;;;;;2.70;2.03;;;16.60;99.90;;;;;;5055479;28;20040;-67
2023/10/01 09:20:39;;;;;;;2.42;1.73;;;;;;;;;;5055686;28;20076;-67
2023/10/01 09:23:06;;;;;;;2.10;1.85;;;16.80;99.90;;;;;;5055590;28;20420;-67
2023/10/01 09:25:39;;;;;;;3.47;2.08;;;17.10;99.90;;;;;;5037112;28;20060;-65
2023/10/01 09:28:22;;;;;;;3.67;2.15;;;17.00;99.90;;;;;;5037750;28;20040;-65
2023/10/01 09:31:19;;;;;;;5.38;2.30;;;17.10;99.90;;;;;;5055487;28;20051;-65
2023/10/01 09:33:48;;;;;;;2.13;1.70;;;17.30;99.90;;;;;;5055166;28;20061;-65
2023/10/01 09:36:33;;;;;;;2.42;2.10;;;;;;;;;;5055309;28;20124;-66
2023/10/01 09:39:03;;;;;;;2.25;1.92;;;;;;;;;;5055404;28;20132;-65
2023/10/01 09:41:31;;;;;;;2.30;1.85;;;17.60;99.90;;;;;;5055003;28;20041;-65
2023/10/01 09:43:58;;;;;;;2.15;1.90;;;17.70;99.90;;;;;;5054933;28;20048;-65
2023/10/01 09:46:33;;;;;;;2.38;1.73;;;17.80;99.90;;;;;;5055036;28;20037;-65
2023/10/01 09:49:02;;;;;;;1.77;1.50;;;17.90;99.90;;;;;;5055115;28;20040;-65
2023/10/01 09:51:31;;;;;;;3.38;1.98;;;18.00;99.90;;;;;;5054950;28;20045;-65
2023/10/01 09:54:02;;;;;;;2.33;2.05;;;18.00;99.90;;;;;;5054637;28;20047;-65
2023/10/01 09:56:30;;;;;;;2.10;1.77;;;18.10;99.90;;;;;;5037046;28;20132;-65
2023/10/01 09:59:01;;;;;;;2.22;1.98;;;18.10;99.90;;;;;;5055091;28;20506;-65
2023/10/01 10:01:30;;;;;;;3.55;2.17;;;18.10;99.90;;;;;;5054753;28;20048;-65
2023/10/01 10:03:59;;;;;;;2.28;1.55;;;18.10;99.90;;;;;;5054722;28;20049;-65
2023/10/01 10:06:25;;;;;;;2.30;1.73;;;18.20;99.90;;;;;;5054366;28;20036;-65
2023/10/01 10:09:03;;;;;;;2.88;2.05;;;18.10;99.90;;;;;;5036785;28;20048;-65
2023/10/01 10:11:46;;;;;;;3.03;2.20;;;18.20;99.90;;;;;;5036227;28;20091;-65
2023/10/01 10:14:26;;;;;;;2.10;1.65;;;18.20;99.90;;;;;;5054405;28;20051;-65
2023/10/01 10:16:57;;;;;;;1.80;1.70;;;18.30;99.90;;;;;;5019889;28;20049;-65
2023/10/01 10:19:22;;;;;;;;;;;18.30;99.90;;;;;;5054981;28;20506;-65
2023/10/01 10:24:48;;;;;;;2.33;1.70;;;18.50;99.90;;;;;;5054202;28;20052;-65
2023/10/01 10:27:31;;;;;;;2.53;1.75;;;18.50;99.90;;;;;;5036319;28;20072;-67
2023/10/01 10:29:56;;;;;;;2.17;1.80;;;18.70;99.90;;;;;;5036518;28;20055;-67
2023/10/01 10:33:05;;;;;;;1.85;1.35;;;18.80;99.90;;;;;;5053986;28;20045;-67
2023/10/01 10:35:32;;;;;;;3.22;2.25;;;19.10;99.90;;;;;;5004693;28;20092;-65
2023/10/01 10:37:58;;;;;;;2.97;2.00;;;19.30;99.90;;;;;;5036097;28;20060;-65
2023/10/01 10:40:24;;;;;;;2.45;2.13;;;19.10;99.90;;;;;;5036017;28;20404;-65
2023/10/01 10:42:58;;;;;;;3.53;2.47;;;18.90;99.90;;;;;;5036123;28;20477;-65
2023/10/01 10:45:42;;;;;;;2.63;2.28;;;19.40;99.90;;;;;;5036105;28;20037;-66
2023/10/01 10:48:08;;;;;;;3.45;2.20;;;19.40;80.00;;;;;;5036212;28;20093;-67
2023/10/01 10:50:56;;;;;;;2.70;1.63;;;19.50;61.50;;;;;;5054068;28;20485;-67
2023/10/01 10:53:42;;;;;;;2.55;2.00;;;19.60;38.00;;;;;;5053980;28;20045;-66
2023/10/01 10:56:15;;;;;;;2.70;2.25;;;19.50;43.40;;;;;;5035798;28;20124;-67
2023/10/01 10:58:53;;;;;;;1.88;1.73;;;19.40;1.00;;;;;;5035748;28;20053;-67
2023/10/01 11:01:19;;;;;;;2.25;1.77;;;19.50;1.00;;;;;;5053436;28;20049;-67
2023/10/01 11:03:48;;;;;;;2.70;2.08;;;19.50;1.00;;;;;;5053257;28;20102;-67
2023/10/01 11:06:17;;;;;;;3.25;2.08;;;19.50;1.00;;;;;;5053572;28;20091;-67
2023/10/01 11:08:51;;;;;;;2.22;1.98;;;19.40;1.00;;;;;;5053515;28;20045;-67
2023/10/01 11:11:41;;;;;;;3.03;2.35;;;19.50;1.00;;;;;;5053555;28;20041;-67
2023/10/01 11:14:25;;;;;;;2.40;2.13;;;19.50;1.00;;;;;;5053122;28;20036;-67
2023/10/01 11:16:51;;;;;;;2.58;2.22;;;19.50;1.00;;;;;;5035398;28;20456;-67
2023/10/01 11:19:21;;;;;;;2.58;2.38;;;19.60;1.00;;;;;;5053129;28;20041;-67
2023/10/01 11:21:58;;;;;;;3.47;2.42;;;19.50;1.00;;;;;;5035090;28;20095;-67
2023/10/01 11:24:30;;;;;;;3.42;2.08;;;19.60;1.00;;;;;;5035156;28;20044;-67
2023/10/01 11:27:14;;;;;;;4.03;2.67;;;19.70;1.00;;;;;;5053155;28;20119;-67
2023/10/01 11:29:58;;;;;;;2.55;1.85;;;19.60;1.00;;;;;;5053223;28;20040;-67
2023/10/01 11:32:58;;;;;;;2.85;2.15;;;19.70;1.00;;;;;;5053197;28;20045;-67
2023/10/01 11:35:32;;;;;;;4.45;2.67;;;19.70;99.90;;;;;;5034992;28;20094;-67
2023/10/01 11:38:04;;;;;;;2.47;2.03;;;19.70;1.00;;;;;;5052986;28;20377;-66
2023/10/01 11:41:06;;;;;;;2.55;2.17;;;19.70;1.00;;;;;;5052964;28;20492;-66
2023/10/01 11:43:32;;;;;;;2.22;2.03;;;19.70;1.00;;;;;;5034652;28;20468;-66
2023/10/01 11:46:19;;;;;;;2.60;2.35;;;19.70;1.00;;;;;;5034896;28;20080;-72
2023/10/01 11:49:14;;;;;;;2.45;2.20;;;19.70;99.90;;;;;;5034808;28;20166;-72
2023/10/01 11:54:16;;;;;;;2.83;2.10;;;19.80;99.90;;;;;;5034983;28;20136;-72
2023/10/01 11:57:05;;;;;;;2.83;2.23;;;19.80;99.90;;;;;;5034985;28;20036;-68
2023/10/01 11:59:32;;;;;;;2.47;2.03;;;19.90;99.90;;;;;;5034746;28;20477;-69
2023/10/01 12:02:18;;;;;;;2.63;2.38;;;19.90;99.90;;;;;;5034709;28;20117;-66
2023/10/01 12:04:44;;;;;;;3.38;2.55;;;20.10;99.90;;;;;;5052502;28;20139;-66
2023/10/01 12:07:17;;;;;;;3.08;2.28;;;20.10;99.90;;;;;;5034904;28;20179;-65
2023/10/01 12:09:49;;;;;;;2.47;2.13;;;20.10;99.90;;;;;;5034475;28;20077;-66
2023/10/01 12:12:19;;;;;;;3.67;3.10;;;20.20;99.90;;;;;;5052767;28;20104;-65
2023/10/01 12:15:33;;;;;;;2.58;2.28;;;20.20;99.90;;;;;;5052864;28;20350;-65
2023/10/01 12:17:46;;;;;;;2.78;2.53;;;20.20;99.90;;;;;;5034563;28;20472;-66
2023/10/01 12:20:30;;;;;;;2.33;1.75;;;20.20;99.90;;;;;;5034748;28;20041;-65
2023/10/01 12:23:10;;;;;;;2.53;2.25;;;20.20;99.90;;;;;;5052595;28;20041;-65
2023/10/01 12:25:53;;;;;;;2.72;2.40;;;20.30;99.90;;;;;;5052589;28;20067;-64
2023/10/01 12:28:29;;;;;;;3.17;2.47;;;20.40;99.90;;;;;;5052148;28;20091;-68
2023/10/01 12:31:01;;;;;;;3.22;2.53;;;20.30;99.90;;;;;;5034660;28;20037;-74
2023/10/01 12:33:40;;;;;;;2.80;2.25;;;20.40;99.90;;;;;;5034502;28;20126;-67
2023/10/01 12:36:31;;;;;;;2.22;2.03;;;20.40;99.90;;;;;;5052629;28;20052;-65
2023/10/01 12:39:38;;;;;;;2.22;1.98;;;20.40;99.90;;;;;;5034554;28;20048;-65
2023/10/01 12:44:25;;;;;;;2.28;2.08;;;20.50;99.90;;;;;;5051989;28;20079;-65
2023/10/01 12:47:15;;;;;;;2.50;2.30;;;20.70;1.00;;;;;;5052559;28;20033;-65
2023/10/01 12:49:42;;;;;;;2.20;1.98;;;20.60;27.60;;;;;;5052503;28;20033;-65
2023/10/01 12:52:14;;;;;;;2.83;2.50;;;21.20;99.90;;;;;;5034676;28;20493;-65
2023/10/01 12:54:41;;;;;;;2.47;2.28;;;20.90;58.90;;;;;;5052470;28;20045;-65
2023/10/01 12:57:18;;;;;;;3.42;1.70;;;21.00;54.60;;;;;;5052545;28;20118;-67
2023/10/01 12:59:46;;;;;;;2.28;1.85;;;21.20;90.10;;;;;;5054498;28;20136;-67
2023/10/01 13:05:16;;;;;;;2.67;2.42;;;21.30;1.00;;;;;;5056052;28;20401;-67
2023/10/01 13:07:53;;;;;;;3.22;2.25;;;21.80;99.90;;;;;;5056100;28;20064;-67
2023/10/01 13:10:19;;;;;;;2.70;2.50;;;21.90;99.90;;;;;;5037675;28;20047;-67
2023/10/01 13:12:59;;;;;;;2.35;2.13;;;22.00;99.90;;;;;;5055591;28;20045;-67
2023/10/01 13:15:33;;;;;;;2.53;2.20;;;22.20;99.90;;;;;;5055565;28;20040;-67
2023/10/01 13:18:17;;;;;;;3.10;2.22;;;21.80;99.90;;;;;;5055762;28;20124;-66
2023/10/01 13:23:24;;;;;;;2.85;2.60;;;22.10;1.00;;;;;;5055627;28;20045;-67
2023/10/01 13:26:05;;;;;;;2.38;2.13;;;22.50;1.00;;;;;;5055645;28;20106;-67
2023/10/01 13:28:49;;;;;;;2.67;2.38;;;21.90;99.90;;;;;;5055308;28;20489;-67
2023/10/01 13:34:06;;;;;;;2.28;1.90;;;22.20;21.80;;;;;;5055240;28;20515;-67
2023/10/01 13:39:44;;;;;;;2.47;2.28;;;21.80;99.90;;;;;;5055071;28;20051;-67
2023/10/01 14:09:52;;;;;;;2.55;2.33;;;21.40;1.00;;;;;;5054092;28;20041;-67
2023/10/01 14:15:27;;;;;;;2.85;2.58;;;21.70;99.90;;;;;;4954179;29;20093;-67
2023/10/01 14:17:58;;;;;;;3.05;2.30;;;21.50;1.00;;;;;;4954321;29;20510;-67
2023/10/01 14:23:30;;;;;;;3.47;2.58;;;21.50;1.00;;;;;;5036646;28;20049;-67
2023/10/01 14:25:59;;;;;;;3.40;2.80;;;21.70;77.80;;;;;;5054153;28;20374;-67
2023/10/01 14:28:27;;;;;;;2.65;2.30;;;21.50;1.00;;;;;;5053993;28;20037;-67
2023/10/01 14:31:02;;;;;;;2.20;2.00;;;21.40;99.90;;;;;;5036120;28;20041;-67
2023/10/01 14:33:29;;;;;;;3.80;2.60;;;21.50;1.00;;;;;;5054211;28;20096;-67
2023/10/01 14:36:03;;;;;;;2.38;2.17;;;21.30;99.90;;;;;;5054336;28;20067;-67
2023/10/01 14:38:49;;;;;;;2.95;2.65;;;21.30;1.00;;;;;;5054271;28;20064;-67
2023/10/01 14:41:17;;;;;;;2.60;2.17;;;21.20;8.00;;;;;;5054247;28;20055;-67
2023/10/01 14:43:54;;;;;;;3.05;2.75;;;21.10;99.90;;;;;;5053916;28;20119;-67
2023/10/01 14:46:21;;;;;;;2.67;2.45;;;21.10;99.90;;;;;;5036341;28;20041;-67
2023/10/01 14:48:47;;;;;;;2.95;2.50;;;21.30;99.90;;;;;;5054092;28;20041;-67
2023/10/01 14:51:25;;;;;;;3.55;2.75;;;21.20;99.90;;;;;;5035959;28;20124;-67